createdAt,value
2023-05-01T00:00:39.983Z,74.30
2023-05-01T00:03:06.916Z,74.45
2023-05-01T00:05:33.694Z,73.75
2023-05-01T00:08:12.600Z,74.72
2023-05-01T00:10:39.799Z,74.78
2023-05-01T00:13:06.750Z,74.73
2023-05-01T00:15:33.870Z,75.51
2023-05-01T00:18:00.591Z,75.17
2023-05-01T00:20:30.635Z,75.27
2023-05-01T00:22:58.062Z,75.52
2023-05-01T00:25:46.742Z,75.57
2023-05-01T00:28:15.544Z,75.00
2023-05-01T00:30:42.237Z,74.91
2023-05-01T00:33:08.898Z,74.68
2023-05-01T00:35:35.883Z,74.73
2023-05-01T00:38:02.577Z,73.45
2023-05-01T00:40:29.356Z,72.76
2023-05-01T00:42:56.913Z,73.89
2023-05-01T00:45:39.134Z,73.80
2023-05-01T00:48:06.407Z,74.25
2023-05-01T00:50:33.542Z,74.19
2023-05-01T00:53:07.859Z,73.63
2023-05-01T00:55:35.977Z,73.69
2023-05-01T00:58:03.677Z,74.35
2023-05-01T01:00:31.228Z,74.61
2023-05-01T01:03:04.767Z,75.79
2023-05-01T01:05:35.929Z,76.44
2023-05-01T01:08:24.105Z,75.44
2023-05-01T01:11:12.981Z,74.37
2023-05-01T01:14:14.051Z,74.23
2023-05-01T01:17:07.108Z,73.82
2023-05-01T01:20:01.863Z,74.72
2023-05-01T01:22:30.069Z,74.67
2023-05-01T01:25:50.540Z,74.97
2023-05-01T01:28:42.818Z,74.86
2023-05-01T01:31:29.602Z,75.80
2023-05-01T01:34:04.354Z,76.39
2023-05-01T01:36:46.777Z,76.01
2023-05-01T01:39:21.163Z,75.14
2023-05-01T01:41:52.550Z,74.67
2023-05-01T01:44:35.076Z,74.29
2023-05-01T01:47:07.324Z,74.53
2023-05-01T01:49:37.396Z,74.33
2023-05-01T01:52:08.651Z,75.05
2023-05-01T01:54:39.184Z,76.59
2023-05-01T01:57:08.081Z,76.06
2023-05-01T01:59:35.895Z,75.82
2023-05-01T02:02:05.416Z,75.59
2023-05-01T02:04:33.620Z,75.81
2023-05-01T02:07:01.650Z,75.73
2023-05-01T02:09:30.065Z,75.62
2023-05-01T02:11:58.838Z,75.60
2023-05-01T02:14:29.104Z,75.58
2023-05-01T02:16:58.888Z,76.09
2023-05-01T02:19:26.519Z,76.60
2023-05-01T02:21:59.762Z,76.67
2023-05-01T02:24:28.566Z,77.16
2023-05-01T02:27:00.733Z,76.91
2023-05-01T02:29:28.233Z,77.65
2023-05-01T02:31:56.133Z,77.86
2023-05-01T02:34:22.886Z,77.88
2023-05-01T02:36:49.670Z,76.92
2023-05-01T02:39:35.908Z,76.34
2023-05-01T02:42:04.548Z,76.95
2023-05-01T02:44:55.598Z,77.63
2023-05-01T02:47:24.137Z,77.97
2023-05-01T02:49:52.900Z,77.50
2023-05-01T02:52:38.670Z,77.81
2023-05-01T02:55:38.085Z,77.81
2023-05-01T02:58:04.897Z,78.36
2023-05-01T03:00:31.554Z,77.09
2023-05-01T03:02:58.611Z,77.11
2023-05-01T03:05:25.335Z,77.11
2023-05-01T03:07:52.407Z,76.14
2023-05-01T03:10:19.173Z,76.97
2023-05-01T03:12:53.070Z,76.77
2023-05-01T03:15:19.670Z,76.70
2023-05-01T03:17:46.462Z,78.11
2023-05-01T03:20:22.471Z,79.50
2023-05-01T03:22:49.141Z,79.43
2023-05-01T03:25:15.934Z,78.07
2023-05-01T03:27:42.629Z,79.00
2023-05-01T03:30:11.279Z,78.81
2023-05-01T03:32:40.982Z,79.42
2023-05-01T03:35:22.857Z,79.62
2023-05-01T03:37:50.100Z,78.84
2023-05-01T03:40:36.672Z,78.82
2023-05-01T03:43:24.362Z,79.01
2023-05-01T03:45:54.701Z,79.95
2023-05-01T03:48:21.564Z,77.90
2023-05-01T03:50:48.208Z,78.38
2023-05-01T03:53:15.610Z,78.48
2023-05-01T03:55:43.388Z,79.36
2023-05-01T03:58:22.360Z,79.22
2023-05-01T04:00:51.022Z,79.60
2023-05-01T04:03:18.123Z,79.77
2023-05-01T04:05:49.178Z,79.99
2023-05-01T04:08:16.014Z,78.81
2023-05-01T04:10:42.720Z,79.83
2023-05-01T04:13:09.494Z,79.44
2023-05-01T04:15:36.261Z,78.77
2023-05-01T04:18:03.086Z,78.60
2023-05-01T04:20:29.978Z,78.31
2023-05-01T04:22:56.792Z,78.22
2023-05-01T04:25:24.506Z,78.93
2023-05-01T04:27:55.825Z,79.23
2023-05-01T04:30:22.720Z,79.82
2023-05-01T04:33:11.692Z,79.38
2023-05-01T04:35:40.105Z,80.41
2023-05-01T04:38:26.483Z,80.26
2023-05-01T04:40:56.376Z,80.26
2023-05-01T04:43:50.940Z,80.39
2023-05-01T04:46:18.801Z,81.31
2023-05-01T04:48:45.645Z,81.68
2023-05-01T04:51:12.416Z,80.92
2023-05-01T04:53:42.657Z,81.09
2023-05-01T04:56:19.506Z,80.55
2023-05-01T04:58:47.901Z,80.17
2023-05-01T05:01:19.722Z,80.36
2023-05-01T05:03:49.622Z,79.50
2023-05-01T05:06:17.070Z,78.65
2023-05-01T05:08:43.761Z,78.85
2023-05-01T05:11:11.442Z,80.07
2023-05-01T05:13:56.090Z,80.15
2023-05-01T05:16:22.979Z,80.39
2023-05-01T05:18:49.846Z,81.29
2023-05-01T05:21:18.908Z,81.36
2023-05-01T05:23:51.144Z,80.32
2023-05-01T05:26:26.908Z,80.10
2023-05-01T05:28:56.408Z,80.40
2023-05-01T05:31:23.783Z,80.76
2023-05-01T05:33:56.756Z,80.48
2023-05-01T05:36:24.901Z,80.62
2023-05-01T05:38:52.748Z,79.83
2023-05-01T05:41:49.306Z,79.82
2023-05-01T05:44:16.601Z,80.31
2023-05-01T05:46:43.540Z,81.27
2023-05-01T05:49:19.064Z,80.62
2023-05-01T05:51:56.376Z,79.69
2023-05-01T05:54:23.199Z,79.24
2023-05-01T05:57:30.869Z,78.62
2023-05-01T05:59:58.225Z,77.73
2023-05-01T06:02:26.494Z,76.99
2023-05-01T06:04:53.205Z,76.37
2023-05-01T06:07:36.198Z,76.69
2023-05-01T06:10:05.436Z,76.29
2023-05-01T06:12:32.351Z,75.11
2023-05-01T06:15:01.094Z,74.87
2023-05-01T06:17:29.133Z,73.66
2023-05-01T06:20:28.085Z,74.08
2023-05-01T06:22:55.760Z,74.27
2023-05-01T06:25:29.035Z,74.24
2023-05-01T06:27:55.916Z,76.36
2023-05-01T06:30:28.324Z,76.94
2023-05-01T06:32:54.976Z,76.03
2023-05-01T06:35:22.078Z,76.21
2023-05-01T06:37:49.797Z,76.94
2023-05-01T06:40:16.582Z,77.28
2023-05-01T06:42:43.525Z,77.97
2023-05-01T06:45:16.498Z,77.50
2023-05-01T06:47:43.461Z,76.81
2023-05-01T06:50:20.810Z,74.75
2023-05-01T06:53:30.386Z,73.38
2023-05-01T06:55:59.072Z,72.33
2023-05-01T06:58:26.531Z,70.94
2023-05-01T07:00:54.562Z,73.73
2023-05-01T07:03:21.422Z,75.56
2023-05-01T07:05:48.256Z,71.15
2023-05-01T07:08:14.799Z,68.62
2023-05-01T07:10:42.235Z,66.78
2023-05-01T07:13:09.694Z,65.35
2023-05-01T07:15:36.759Z,64.86
2023-05-01T07:18:57.692Z,64.73
2023-05-01T07:21:24.437Z,63.61
2023-05-01T07:23:51.239Z,61.47
2023-05-01T07:26:18.207Z,59.29
2023-05-01T07:28:44.850Z,59.21
2023-05-01T07:31:11.715Z,60.57
2023-05-01T07:33:38.390Z,59.71
2023-05-01T07:36:05.154Z,60.38
2023-05-01T07:38:31.780Z,60.22
2023-05-01T07:40:58.286Z,59.85
2023-05-01T07:43:24.943Z,60.13
2023-05-01T07:45:59.164Z,59.05
2023-05-01T07:48:27.211Z,58.76
2023-05-01T07:50:54.900Z,58.34
2023-05-01T07:53:53.230Z,59.42
2023-05-01T07:56:19.980Z,58.22
2023-05-01T07:58:57.799Z,58.20
2023-05-01T08:01:24.724Z,57.37
2023-05-01T08:03:51.725Z,58.19
2023-05-01T08:06:40.694Z,57.28
2023-05-01T08:09:07.309Z,57.82
2023-05-01T08:11:41.358Z,57.01
2023-05-01T08:14:08.031Z,56.37
2023-05-01T08:16:55.310Z,55.67
2023-05-01T08:19:23.200Z,54.81
2023-05-01T08:21:50.112Z,53.69
2023-05-01T08:24:16.994Z,55.05
2023-05-01T08:26:43.718Z,52.90
2023-05-01T08:29:10.538Z,52.58
2023-05-01T08:31:38.073Z,52.65
2023-05-01T08:34:05.587Z,50.67
2023-05-01T08:36:35.151Z,50.25
2023-05-01T08:39:15.754Z,50.21
2023-05-01T08:41:48.923Z,49.44
2023-05-01T08:44:18.433Z,48.17
2023-05-01T08:47:09.585Z,49.30
2023-05-01T08:49:42.886Z,49.41
2023-05-01T08:52:22.042Z,49.00
2023-05-01T08:54:50.739Z,49.08
2023-05-01T08:57:55.815Z,47.74
2023-05-01T09:00:24.817Z,46.65
2023-05-01T09:02:52.111Z,47.34
2023-05-01T09:05:23.801Z,46.22
2023-05-01T09:07:50.527Z,47.42
2023-05-01T09:10:19.332Z,47.54
2023-05-01T09:12:49.616Z,47.74
2023-05-01T09:15:19.407Z,46.74
2023-05-01T09:17:46.152Z,47.83
2023-05-01T09:20:19.474Z,46.92
2023-05-01T09:22:50.360Z,46.56
2023-05-01T09:25:17.788Z,47.41
2023-05-01T09:27:45.782Z,47.58
2023-05-01T09:30:36.367Z,48.83
2023-05-01T09:33:10.717Z,46.38
2023-05-01T09:36:08.667Z,46.79
2023-05-01T09:38:43.524Z,45.58
2023-05-01T09:41:10.339Z,45.49
2023-05-01T09:43:36.919Z,45.98
2023-05-01T09:46:12.026Z,46.70
2023-05-01T09:48:39.296Z,45.70
2023-05-01T09:51:35.681Z,44.84
2023-05-01T09:54:05.112Z,44.18
2023-05-01T09:56:33.986Z,42.37
2023-05-01T09:59:19.721Z,42.75
2023-05-01T10:01:48.655Z,42.23
2023-05-01T10:04:38.709Z,40.97
2023-05-01T10:07:22.817Z,42.58
2023-05-01T10:09:49.842Z,40.80
2023-05-01T10:12:38.421Z,41.16
2023-05-01T10:15:41.431Z,42.09
2023-05-01T10:18:11.402Z,43.40
2023-05-01T10:20:38.081Z,44.20
2023-05-01T10:23:09.372Z,43.63
2023-05-01T10:25:37.202Z,45.03
2023-05-01T10:28:04.968Z,43.62
2023-05-01T10:30:32.489Z,42.29
2023-05-01T10:33:09.260Z,43.01
2023-05-01T10:35:40.644Z,42.71
2023-05-01T10:38:12.332Z,41.45
2023-05-01T10:40:38.908Z,39.47
2023-05-01T10:43:30.735Z,39.75
2023-05-01T10:46:24.326Z,39.87
2023-05-01T10:48:51.052Z,39.72
2023-05-01T10:51:20.357Z,40.73
2023-05-01T10:54:13.478Z,40.24
2023-05-01T10:57:03.010Z,42.63
2023-05-01T11:00:05.311Z,42.05
2023-05-01T11:02:33.056Z,41.86
2023-05-01T11:05:00.057Z,42.13
2023-05-01T11:11:31.490Z,43.60
2023-05-01T11:14:08.376Z,42.72
2023-05-01T11:16:38.239Z,43.87
2023-05-01T11:19:34.118Z,43.50
2023-05-01T11:22:01.183Z,43.54
2023-05-01T11:24:32.994Z,43.83
2023-05-01T11:27:13.954Z,42.99
2023-05-01T11:29:42.015Z,42.30
2023-05-01T11:32:09.735Z,43.37
2023-05-01T11:34:39.346Z,44.02
2023-05-01T11:37:06.096Z,42.56
2023-05-01T11:39:32.756Z,42.97
2023-05-01T11:42:12.851Z,41.42
2023-05-01T11:44:39.595Z,42.79
2023-05-01T11:47:07.571Z,42.75
2023-05-01T11:49:34.770Z,42.45
2023-05-01T11:52:01.529Z,41.75
2023-05-01T11:54:54.396Z,42.17
2023-05-01T11:57:22.127Z,42.27
2023-05-01T11:59:49.246Z,41.54
2023-05-01T12:02:27.464Z,41.32
2023-05-01T12:04:54.337Z,41.57
2023-05-01T12:07:24.136Z,41.65
2023-05-01T12:09:57.233Z,42.16
2023-05-01T12:12:38.658Z,42.47
2023-05-01T12:15:06.010Z,43.19
2023-05-01T12:17:33.147Z,43.43
2023-05-01T12:19:59.826Z,44.62
2023-05-01T12:22:26.625Z,44.60
2023-05-01T12:24:56.782Z,43.34
2023-05-01T12:27:23.537Z,43.09
2023-05-01T12:29:55.728Z,42.04
2023-05-01T12:32:30.282Z,43.56
2023-05-01T12:34:57.806Z,44.72
2023-05-01T12:37:31.701Z,45.04
2023-05-01T12:39:58.528Z,43.99
2023-05-01T12:42:25.257Z,43.16
2023-05-01T12:45:01.066Z,42.30
2023-05-01T12:47:36.793Z,41.83
2023-05-01T12:50:04.521Z,42.15
2023-05-01T12:52:32.372Z,41.04
2023-05-01T12:55:45.923Z,41.34
2023-05-01T12:58:12.948Z,42.14
2023-05-01T13:00:48.311Z,42.31
2023-05-01T13:03:18.284Z,41.72
2023-05-01T13:05:53.287Z,41.44
2023-05-01T13:08:34.022Z,43.21
2023-05-01T13:11:09.024Z,44.09
2023-05-01T13:13:36.608Z,44.17
2023-05-01T13:16:06.550Z,43.20
2023-05-01T13:18:34.241Z,43.26
2023-05-01T13:21:13.081Z,43.47
2023-05-01T13:23:40.448Z,43.93
2023-05-01T13:26:08.082Z,43.76
2023-05-01T13:28:42.793Z,44.22
2023-05-01T13:31:28.088Z,42.69
2023-05-01T13:33:57.468Z,43.66
2023-05-01T13:36:33.569Z,45.83
2023-05-01T13:39:00.351Z,46.44
2023-05-01T13:41:27.605Z,45.73
2023-05-01T13:44:06.751Z,45.27
2023-05-01T13:46:33.448Z,44.86
2023-05-01T13:49:25.800Z,44.66
2023-05-01T13:51:53.000Z,44.65
2023-05-01T13:54:19.687Z,44.59
2023-05-01T13:56:46.811Z,43.78
2023-05-01T13:59:13.652Z,45.15
2023-05-01T14:01:43.161Z,44.75
2023-05-01T14:04:13.234Z,46.76
2023-05-01T14:06:44.265Z,47.79
2023-05-01T14:09:11.103Z,49.24
2023-05-01T14:11:46.926Z,49.80
2023-05-01T14:14:18.543Z,51.09
2023-05-01T14:16:50.629Z,52.16
2023-05-01T14:19:18.522Z,52.02
2023-05-01T14:22:03.631Z,50.76
2023-05-01T14:24:30.900Z,51.69
2023-05-01T14:26:57.863Z,51.66
2023-05-01T14:29:28.189Z,51.19
2023-05-01T14:31:55.977Z,50.74
2023-05-01T14:34:23.306Z,50.83
2023-05-01T14:36:59.364Z,52.69
2023-05-01T14:39:27.058Z,50.96
2023-05-01T14:42:06.103Z,51.04
2023-05-01T14:44:33.014Z,50.17
2023-05-01T14:47:00.440Z,49.61
2023-05-01T14:49:27.182Z,49.33
2023-05-01T14:51:54.259Z,49.16
2023-05-01T14:54:21.275Z,49.69
2023-05-01T14:56:54.179Z,49.25
2023-05-01T14:59:22.837Z,47.74
2023-05-01T15:01:49.677Z,47.68
2023-05-01T15:04:16.732Z,47.81
2023-05-01T15:06:43.654Z,46.46
2023-05-01T15:09:10.320Z,45.79
2023-05-01T15:11:36.992Z,45.78
2023-05-01T15:14:04.259Z,46.06
2023-05-01T15:16:31.806Z,45.48
2023-05-01T15:19:25.501Z,45.36
2023-05-01T15:21:52.153Z,46.14
2023-05-01T15:24:19.718Z,45.39
2023-05-01T15:26:46.362Z,44.56
2023-05-01T15:29:13.022Z,43.15
2023-05-01T15:31:39.772Z,43.98
2023-05-01T15:34:06.530Z,43.88
2023-05-01T15:36:33.358Z,45.19
2023-05-01T15:39:00.028Z,45.14
2023-05-01T15:41:26.712Z,44.94
2023-05-01T15:43:53.486Z,45.19
2023-05-01T15:46:22.603Z,44.85
2023-05-01T15:48:49.329Z,45.23
2023-05-01T15:51:15.945Z,44.31
2023-05-01T15:53:42.620Z,43.33
2023-05-01T15:56:22.083Z,43.46
2023-05-01T15:58:48.648Z,43.39
2023-05-01T16:01:20.642Z,43.39
2023-05-01T16:03:49.302Z,43.44
2023-05-01T16:06:56.660Z,44.00
2023-05-01T16:09:29.958Z,44.50
2023-05-01T16:11:56.861Z,43.05
2023-05-01T16:14:24.628Z,43.26
2023-05-01T16:16:52.402Z,44.38
2023-05-01T16:19:19.362Z,46.05
2023-05-01T16:21:46.342Z,46.44
2023-05-01T16:24:14.033Z,47.08
2023-05-01T16:26:42.049Z,47.25
2023-05-01T16:29:08.848Z,47.66
2023-05-01T16:31:53.400Z,47.55
2023-05-01T16:34:25.446Z,47.20
2023-05-01T16:36:53.300Z,46.97
2023-05-01T16:39:27.378Z,47.16
2023-05-01T16:41:55.179Z,46.31
2023-05-01T16:44:35.487Z,45.07
2023-05-01T16:47:03.657Z,44.98
2023-05-01T16:49:30.357Z,44.98
2023-05-01T16:52:04.056Z,45.69
2023-05-01T16:54:48.211Z,45.96
2023-05-01T16:57:29.310Z,45.94
2023-05-01T17:00:16.507Z,46.03
2023-05-01T17:02:53.605Z,46.67
2023-05-01T17:05:21.236Z,46.53
2023-05-01T17:07:47.889Z,46.30
2023-05-01T17:10:14.793Z,46.69
2023-05-01T17:13:01.273Z,47.21
2023-05-01T17:15:28.229Z,47.23
2023-05-01T17:17:55.105Z,47.08
2023-05-01T17:20:21.912Z,47.40
2023-05-01T17:22:49.399Z,48.02
2023-05-01T17:25:17.102Z,48.98
2023-05-01T17:27:43.705Z,48.80
2023-05-01T17:30:12.732Z,48.93
2023-05-01T17:32:39.696Z,49.62
2023-05-01T17:35:08.177Z,49.10
2023-05-01T17:37:35.190Z,49.09
2023-05-01T17:40:16.511Z,49.99
2023-05-01T17:42:49.506Z,50.06
2023-05-01T17:45:16.251Z,52.83
2023-05-01T17:47:56.347Z,53.10
2023-05-01T17:50:23.716Z,52.80
2023-05-01T17:52:51.568Z,53.11
2023-05-01T17:55:18.675Z,52.62
2023-05-01T17:57:46.073Z,52.78
2023-05-01T18:00:16.285Z,53.02
2023-05-01T18:06:18.204Z,53.93
2023-05-01T18:08:55.722Z,54.12
2023-05-01T18:11:22.772Z,54.84
2023-05-01T18:14:00.716Z,55.09
2023-05-01T18:16:27.750Z,55.56
2023-05-01T18:18:54.612Z,55.79
2023-05-01T18:21:21.924Z,56.78
2023-05-01T18:23:49.025Z,56.22
2023-05-01T18:26:16.881Z,57.34
2023-05-01T18:28:51.067Z,58.63
2023-05-01T18:31:18.084Z,59.94
2023-05-01T18:34:02.336Z,61.11
2023-05-01T18:36:29.185Z,61.28
2023-05-01T18:38:56.342Z,62.40
2023-05-01T18:41:50.317Z,62.91
2023-05-01T18:44:41.777Z,62.69
2023-05-01T18:47:08.740Z,62.47
2023-05-01T18:49:35.940Z,61.82
2023-05-01T18:52:03.870Z,61.79
2023-05-01T18:54:47.228Z,61.80
2023-05-01T18:57:13.896Z,62.06
2023-05-01T18:59:42.443Z,62.03
2023-05-01T19:02:24.251Z,62.79
2023-05-01T19:04:57.580Z,63.44
2023-05-01T19:08:00.932Z,64.55
2023-05-01T19:10:38.824Z,65.25
2023-05-01T19:13:20.500Z,66.29
2023-05-01T19:15:47.682Z,67.03
2023-05-01T19:18:16.438Z,67.97
2023-05-01T19:20:48.505Z,69.03
2023-05-01T19:23:36.070Z,69.27
2023-05-01T19:26:23.637Z,68.89
2023-05-01T19:28:52.549Z,69.39
2023-05-01T19:31:20.377Z,69.48
2023-05-01T19:33:48.253Z,69.91
2023-05-01T19:36:15.152Z,69.07
2023-05-01T19:38:43.676Z,68.90
2023-05-01T19:41:12.777Z,68.69
2023-05-01T19:43:40.752Z,68.84
2023-05-01T19:46:08.042Z,68.43
2023-05-01T19:48:37.271Z,68.69
2023-05-01T19:51:04.237Z,68.40
2023-05-01T19:53:31.550Z,68.24
2023-05-01T19:55:59.048Z,68.96
2023-05-01T19:59:05.207Z,69.30
2023-05-01T20:01:49.483Z,69.93
2023-05-01T20:04:18.871Z,69.73
2023-05-01T20:06:48.674Z,70.52
2023-05-01T20:09:35.838Z,70.99
2023-05-01T20:12:03.602Z,71.00
2023-05-01T20:14:31.712Z,71.91
2023-05-01T20:17:00.559Z,71.39
2023-05-01T20:19:28.256Z,70.93
2023-05-01T20:21:55.145Z,71.47
2023-05-01T20:24:23.449Z,71.37
2023-05-01T20:26:51.091Z,70.59
2023-05-01T20:29:18.642Z,70.10
2023-05-01T20:31:45.543Z,70.34
2023-05-01T20:34:12.537Z,71.72
2023-05-01T20:36:39.698Z,72.53
2023-05-01T20:39:06.484Z,72.94
2023-05-01T20:41:33.827Z,73.36
2023-05-01T20:44:37.555Z,73.64
2023-05-01T20:47:05.001Z,74.72
2023-05-01T20:49:54.801Z,74.71
2023-05-01T20:52:22.245Z,74.72
2023-05-01T20:54:56.314Z,74.14
2023-05-01T20:57:23.440Z,73.41
2023-05-01T21:00:05.486Z,73.63
2023-05-01T21:02:33.600Z,73.44
2023-05-01T21:05:41.801Z,73.51
2023-05-01T21:08:08.621Z,73.17
2023-05-01T21:10:36.505Z,73.46
2023-05-01T21:13:03.766Z,73.03
2023-05-01T21:15:36.684Z,73.14
2023-05-01T21:18:03.812Z,72.94
2023-05-01T21:20:34.631Z,73.75
2023-05-01T21:23:01.498Z,73.05
2023-05-01T21:25:56.799Z,72.30
2023-05-01T21:28:24.222Z,72.70
2023-05-01T21:31:02.225Z,72.56
2023-05-01T21:33:29.904Z,73.22
2023-05-01T21:35:57.052Z,73.82
2023-05-01T21:38:24.360Z,74.52
2023-05-01T21:41:05.773Z,74.80
2023-05-01T21:43:45.467Z,75.24
2023-05-01T21:46:17.051Z,75.87
2023-05-01T21:48:45.530Z,76.70
2023-05-01T21:51:12.659Z,76.48
2023-05-01T21:53:41.771Z,77.56
2023-05-01T21:56:10.191Z,77.04
2023-05-01T21:59:20.066Z,77.24
2023-05-01T22:01:47.025Z,77.48
2023-05-01T22:04:17.742Z,77.44
2023-05-01T22:06:44.810Z,77.40
2023-05-01T22:09:41.954Z,76.66
2023-05-01T22:12:08.800Z,77.00
2023-05-01T22:14:46.846Z,77.16
2023-05-01T22:17:15.033Z,77.29
2023-05-01T22:19:42.317Z,77.71
2023-05-01T22:22:17.609Z,77.09
2023-05-01T22:24:44.735Z,76.80
2023-05-01T22:27:12.920Z,77.01
2023-05-01T22:29:39.608Z,77.36
2023-05-01T22:32:06.559Z,76.70
2023-05-01T22:34:33.602Z,76.69
2023-05-01T22:37:06.078Z,76.68
2023-05-01T22:39:37.262Z,76.53
2023-05-01T22:42:05.655Z,77.11
2023-05-01T22:44:33.397Z,76.88
2023-05-01T22:47:00.349Z,76.67
2023-05-01T22:49:32.201Z,76.22
2023-05-01T22:51:59.164Z,76.13
2023-05-01T22:54:26.052Z,76.25
2023-05-01T22:56:53.331Z,76.34
2023-05-01T22:59:21.905Z,77.14
2023-05-01T23:01:49.044Z,77.11
2023-05-01T23:04:16.033Z,77.04
2023-05-01T23:06:46.175Z,78.25
2023-05-01T23:09:20.901Z,78.96
2023-05-01T23:11:48.754Z,79.03
2023-05-01T23:14:19.472Z,80.53
2023-05-01T23:16:49.089Z,80.34
2023-05-01T23:19:24.501Z,78.63
2023-05-01T23:22:03.500Z,77.77
2023-05-01T23:24:49.700Z,77.79
2023-05-01T23:27:18.421Z,77.98
2023-05-01T23:29:55.000Z,77.77
2023-05-01T23:32:30.782Z,76.50
2023-05-01T23:35:09.439Z,75.85
2023-05-01T23:37:56.140Z,75.75
2023-05-01T23:40:23.268Z,75.95
2023-05-01T23:42:50.660Z,76.24
2023-05-01T23:45:17.616Z,75.62
2023-05-01T23:47:44.520Z,75.76
2023-05-01T23:50:12.491Z,76.10
2023-05-01T23:52:43.756Z,75.14
2023-05-01T23:55:11.039Z,75.84
2023-05-01T23:57:38.256Z,75.15
